Time;durP1;ratioP1;P1;durP2;ratioP2;P2;SDS_P1;SDS_P2;PMS_P1;PMS_P2;Temp;Humidity;BMP_temperature;BMP_pressure;BME280_temperature;BME280_humidity;BME280_pressure;Samples;Min_cycle;Max_cycle;Signal;HPM_P1;HPM_P2
2022/12/08 00:01:45;;;;;;;13.32;7.68;;;0.90;99.90;;;;;;5105862;28;20030;-69
2022/12/08 00:04:10;;;;;;;16.45;8.23;;;1.00;99.90;;;;;;5093504;28;20380;-70
2022/12/08 00:09:30;;;;;;;11.93;7.70;;;1.00;99.90;;;;;;5100047;28;20030;-69
2022/12/08 00:12:02;;;;;;;12.75;7.78;;;1.00;99.90;;;;;;5095444;28;20032;-69
2022/12/08 00:14:34;;;;;;;16.05;8.80;;;1.10;99.90;;;;;;5109629;28;20043;-69
2022/12/08 00:17:00;;;;;;;15.10;8.73;;;1.10;99.90;;;;;;5104097;28;20460;-68
2022/12/08 00:19:27;;;;;;;16.27;8.68;;;1.10;99.90;;;;;;5100627;27;20040;-68
2022/12/08 00:21:53;;;;;;;16.60;9.63;;;1.10;99.90;;;;;;5106152;28;20486;-69
2022/12/08 00:24:19;;;;;;;17.58;10.13;;;1.00;99.90;;;;;;5094719;28;20036;-68
2022/12/08 00:26:45;;;;;;;16.65;9.20;;;1.00;99.90;;;;;;5097844;28;20051;-69
2022/12/08 00:29:12;;;;;;;17.38;9.57;;;1.00;99.90;;;;;;5101571;28;20047;-69
2022/12/08 00:31:37;;;;;;;15.30;9.25;;;1.00;99.90;;;;;;5100851;28;20028;-69
2022/12/08 00:34:04;;;;;;;17.35;8.75;;;0.90;99.90;;;;;;5111514;28;20110;-69
2022/12/08 00:36:29;;;;;;;17.77;9.55;;;0.80;99.90;;;;;;5099026;28;20032;-68
2022/12/08 00:38:56;;;;;;;17.13;10.27;;;0.80;99.90;;;;;;5086102;28;20028;-68
2022/12/08 00:44:09;;;;;;;13.18;8.38;;;0.60;99.90;;;;;;5095975;28;20046;-69
2022/12/08 00:46:35;;;;;;;13.15;7.72;;;0.60;99.90;;;;;;5101548;28;20028;-69
2022/12/08 00:49:01;;;;;;;13.20;8.52;;;0.50;99.90;;;;;;5099739;28;21224;-68
2022/12/08 00:51:27;;;;;;;13.40;8.68;;;0.50;99.90;;;;;;5101795;28;20031;-68
2022/12/08 00:53:52;;;;;;;14.65;8.55;;;0.50;99.90;;;;;;5102126;28;20130;-69
2022/12/08 00:56:18;;;;;;;12.52;8.07;;;0.50;99.90;;;;;;5092585;28;20055;-69
2022/12/08 00:58:43;;;;;;;12.73;7.45;;;0.40;99.90;;;;;;5103412;28;20028;-69
2022/12/08 01:01:13;;;;;;;15.93;7.60;;;0.40;99.90;;;;;;5100602;28;20096;-69
2022/12/08 01:03:39;;;;;;;13.45;7.70;;;0.30;99.90;;;;;;5104006;28;20088;-69
2022/12/08 01:06:06;;;;;;;11.55;7.75;;;0.20;99.90;;;;;;5096715;28;20407;-70
2022/12/08 01:08:32;;;;;;;11.70;7.22;;;0.20;99.90;;;;;;5095634;28;20068;-69
2022/12/08 01:11:11;;;;;;;11.05;7.45;;;0.10;99.90;;;;;;5108269;28;20023;-68
2022/12/08 01:13:37;;;;;;;11.95;7.07;;;;;;;;;;5094571;28;20520;-69
2022/12/08 01:16:03;;;;;;;13.70;7.47;;;;;;;;;;5097610;28;20028;-69
2022/12/08 01:18:29;;;;;;;11.95;7.20;;;;;;;;;;5104882;28;20027;-69
2022/12/08 01:21:01;;;;;;;14.68;7.93;;;;;;;;;;5095209;28;20024;-69
2022/12/08 01:23:27;;;;;;;14.27;7.63;;;;;;;;;;5098941;28;20053;-68
2022/12/08 01:25:53;;;;;;;14.18;7.50;;;;;;;;;;5096400;28;20039;-69
2022/12/08 01:28:19;;;;;;;15.23;8.85;;;;;;;;;;5103781;28;20035;-69
2022/12/08 01:30:45;;;;;;;13.88;8.57;;;;;;;;;;5100170;28;20024;-69
2022/12/08 01:33:11;;;;;;;12.95;8.35;;;;;;;;;;5097382;28;20024;-70
2022/12/08 01:35:39;;;;;;;14.32;8.35;;;;;;;;;;5109276;28;20401;-69
2022/12/08 01:38:05;;;;;;;15.27;9.00;;;;;;;;;;5094255;28;20028;-69
2022/12/08 01:40:31;;;;;;;14.82;8.48;;;;;;;;;;5101860;28;20035;-69
2022/12/08 01:42:57;;;;;;;13.55;8.43;;;;;;;;;;5098632;28;20110;-70
2022/12/08 01:45:27;;;;;;;14.23;8.63;;;;;;;;;;5091112;28;20036;-69
2022/12/08 01:47:52;;;;;;;;;;;;;;;;;;5097019;28;20499;-69
2022/12/08 01:50:20;;;;;;;17.65;9.55;;;;;;;;;;5097170;28;19908;-69
2022/12/08 01:52:47;;;;;;;17.58;10.63;;;;;;;;;;5092457;28;20020;-69
2022/12/08 01:55:17;;;;;;;17.63;9.10;;;;;;;;;;5097494;28;20123;-69
2022/12/08 01:57:45;;;;;;;14.32;8.43;;;;;;;;;;5098961;28;20095;-69
2022/12/08 02:00:13;;;;;;;16.92;9.40;;;;;;;;;;5107253;28;20028;-69
2022/12/08 02:02:57;;;;;;;20.42;9.27;;;;;;;;;;5100789;28;20035;-69
2022/12/08 02:05:26;;;;;;;16.23;9.65;;;;;;;;;;5088316;28;20028;-70
2022/12/08 02:07:52;;;;;;;18.23;9.68;;;;;;;;;;5095695;28;20032;-70
2022/12/08 02:10:19;;;;;;;19.45;9.43;;;;;;;;;;5096418;28;20019;-69
2022/12/08 02:12:46;;;;;;;16.42;9.10;;;;;;;;;;5105939;28;20023;-70
2022/12/08 02:15:13;;;;;;;13.63;8.10;;;;;;;;;;5103169;28;20385;-70
2022/12/08 02:17:54;;;;;;;14.63;8.90;;;;;;;;;;5101407;28;20020;-69
2022/12/08 02:20:20;;;;;;;15.68;8.40;;;;;;;;;;5098315;28;20076;-70
2022/12/08 02:23:04;;;;;;;16.98;8.88;;;;;;;;;;5094525;28;20453;-69
2022/12/08 02:26:01;;;;;;;17.35;9.52;;;-0.70;99.90;;;;;;5107353;28;20104;-69
2022/12/08 02:28:45;;;;;;;15.18;8.65;;;-0.80;99.90;;;;;;5092042;28;20035;-69
2022/12/08 02:31:28;;;;;;;13.48;8.43;;;-0.90;99.90;;;;;;5094633;28;20031;-70
2022/12/08 02:34:18;;;;;;;14.07;8.27;;;-1.00;99.90;;;;;;5080749;28;20037;-69
2022/12/08 02:36:46;;;;;;;12.43;7.68;;;-1.00;99.90;;;;;;5095272;28;20028;-69
2022/12/08 02:39:50;;;;;;;16.05;7.75;;;-1.10;99.90;;;;;;5084855;28;20036;-69
2022/12/08 02:42:29;;;;;;;18.67;8.32;;;-1.10;99.90;;;;;;5006268;28;20041;-69
2022/12/08 02:45:19;;;;;;;11.63;7.65;;;-1.10;99.90;;;;;;5079830;28;20048;-69
2022/12/08 02:47:45;;;;;;;;;;;-1.20;99.90;;;;;;5093196;28;20512;-69
2022/12/08 02:50:11;;;;;;;13.20;7.65;;;-1.20;99.90;;;;;;5092579;28;19916;-69
2022/12/08 02:52:43;;;;;;;14.35;7.05;;;-1.30;99.90;;;;;;5109519;28;20023;-69
2022/12/08 02:55:19;;;;;;;14.60;6.88;;;-1.30;99.90;;;;;;5096890;28;20044;-69
2022/12/08 02:58:06;;;;;;;14.20;7.55;;;-1.30;99.90;;;;;;5104317;28;20085;-69
2022/12/08 03:00:58;;;;;;;16.60;7.55;;;-1.40;99.90;;;;;;5095581;28;20028;-69
2022/12/08 03:03:47;;;;;;;15.23;7.10;;;-1.50;99.90;;;;;;5090327;28;20903;-69
2022/12/08 03:06:38;;;;;;;11.85;7.35;;;-1.50;99.90;;;;;;5094236;28;20056;-70
2022/12/08 03:09:26;;;;;;;13.40;7.35;;;-1.60;99.90;;;;;;5098322;28;20441;-70
2022/12/08 03:12:09;;;;;;;14.13;7.97;;;-1.70;99.90;;;;;;5098620;28;20032;-69
2022/12/08 03:14:37;;;;;;;16.17;7.43;;;-1.80;99.90;;;;;;5093687;28;20043;-69
2022/12/08 03:17:03;;;;;;;14.30;7.95;;;-1.80;99.90;;;;;;5107196;28;20037;-70
2022/12/08 03:19:34;;;;;;;13.50;7.72;;;-1.80;99.90;;;;;;5101273;28;20028;-69
2022/12/08 03:22:02;;;;;;;13.32;7.47;;;-1.90;99.90;;;;;;5099482;28;20487;-69
2022/12/08 03:24:36;;;;;;;13.90;7.55;;;-1.90;99.90;;;;;;5094907;28;20401;-69
2022/12/08 03:27:06;;;;;;;17.15;8.23;;;-1.90;99.90;;;;;;5107700;28;20077;-69
2022/12/08 03:29:33;;;;;;;14.65;8.25;;;-1.90;99.90;;;;;;5096245;28;20028;-69
2022/12/08 03:32:16;;;;;;;19.30;9.20;;;-1.90;99.90;;;;;;5098379;28;20476;-69
2022/12/08 03:34:44;;;;;;;15.60;8.35;;;-1.90;99.90;;;;;;5091248;28;20042;-68
2022/12/08 03:37:10;;;;;;;19.52;8.93;;;-1.80;99.90;;;;;;5091895;28;20027;-68
2022/12/08 03:39:36;;;;;;;14.75;8.32;;;-1.80;99.90;;;;;;5093110;28;20387;-68
2022/12/08 03:42:01;;;;;;;15.15;8.07;;;-1.70;99.90;;;;;;5102437;28;20024;-70
2022/12/08 03:44:27;;;;;;;15.23;8.75;;;-1.70;99.90;;;;;;5105541;28;20023;-69
2022/12/08 03:46:52;;;;;;;16.05;8.82;;;-1.70;99.90;;;;;;5104086;28;20473;-69
2022/12/08 03:49:18;;;;;;;15.73;8.60;;;-1.70;99.90;;;;;;5098619;28;20034;-69
2022/12/08 03:51:44;;;;;;;19.00;8.90;;;-1.70;99.90;;;;;;5100546;28;20034;-69
2022/12/08 03:54:09;;;;;;;17.00;9.23;;;-1.70;99.90;;;;;;5085257;28;20032;-69
2022/12/08 03:56:37;;;;;;;16.40;8.55;;;-1.80;99.90;;;;;;5090155;28;20059;-68
2022/12/08 03:59:04;;;;;;;16.73;9.00;;;-1.90;99.90;;;;;;5098628;28;20066;-70
2022/12/08 04:01:29;;;;;;;15.77;8.18;;;-2.00;99.90;;;;;;5092539;28;20076;-68
2022/12/08 04:03:55;;;;;;;19.38;9.57;;;-2.10;99.90;;;;;;5102172;28;20032;-68
2022/12/08 04:06:21;;;;;;;13.32;7.90;;;-2.20;99.90;;;;;;5099587;28;20038;-68
2022/12/08 04:08:47;;;;;;;19.92;9.73;;;-2.30;99.90;;;;;;5091568;28;20384;-68
2022/12/08 04:11:13;;;;;;;16.65;8.82;;;-2.30;99.90;;;;;;5094610;28;20028;-68
2022/12/08 04:13:40;;;;;;;19.27;9.02;;;-2.30;99.90;;;;;;5099080;28;20038;-69
2022/12/08 04:16:07;;;;;;;15.18;9.15;;;-2.30;99.90;;;;;;5095155;28;20032;-68
2022/12/08 04:18:34;;;;;;;16.30;9.13;;;-2.30;99.90;;;;;;5098402;28;20028;-68
2022/12/08 04:21:00;;;;;;;16.88;9.30;;;-2.40;99.90;;;;;;5096388;28;20036;-69
2022/12/08 04:23:25;;;;;;;18.05;9.88;;;-2.50;99.90;;;;;;5103581;28;20039;-68
2022/12/08 04:25:52;;;;;;;17.10;9.52;;;-2.50;99.90;;;;;;5086898;28;21259;-68
2022/12/08 04:28:18;;;;;;;18.10;9.68;;;-2.50;99.90;;;;;;5103580;28;20064;-69
2022/12/08 04:30:43;;;;;;;22.88;10.70;;;-2.40;99.90;;;;;;5100104;28;20028;-68
2022/12/08 04:33:09;;;;;;;22.13;11.15;;;-2.40;99.90;;;;;;5095341;28;20024;-68
2022/12/08 04:35:35;;;;;;;21.73;11.35;;;-2.30;99.90;;;;;;5100158;28;20469;-68
2022/12/08 04:38:01;;;;;;;23.13;10.48;;;-2.10;99.90;;;;;;5098310;28;20042;-67
2022/12/08 04:40:27;;;;;;;20.15;10.00;;;-2.10;99.90;;;;;;5101459;28;20152;-69
2022/12/08 04:42:53;;;;;;;18.60;10.10;;;-2.10;99.90;;;;;;5100378;28;20060;-69
2022/12/08 04:45:18;;;;;;;23.52;10.82;;;-2.00;99.90;;;;;;5105508;28;20365;-69
2022/12/08 04:47:44;;;;;;;22.98;11.35;;;-2.10;99.90;;;;;;5101804;28;20035;-69
2022/12/08 04:50:10;;;;;;;23.48;10.05;;;-2.10;99.90;;;;;;5092953;28;20028;-69
2022/12/08 04:52:35;;;;;;;18.05;9.13;;;-2.10;99.90;;;;;;5101909;28;20051;-70
2022/12/08 04:55:01;;;;;;;22.55;10.27;;;-2.20;99.90;;;;;;5098371;28;20479;-69
2022/12/08 04:57:27;;;;;;;20.38;10.73;;;-2.30;99.90;;;;;;5092290;28;20429;-69
2022/12/08 04:59:52;;;;;;;20.13;10.52;;;-2.30;99.90;;;;;;5105264;28;20043;-70
2022/12/08 05:02:18;;;;;;;21.83;10.27;;;-2.30;99.90;;;;;;5092047;28;20020;-69
2022/12/08 05:04:43;;;;;;;17.52;9.65;;;-2.30;99.90;;;;;;5093378;28;20066;-69
2022/12/08 05:07:09;;;;;;;17.67;9.32;;;-2.30;99.90;;;;;;5101430;28;20035;-68
2022/12/08 05:09:35;;;;;;;18.23;9.02;;;-2.30;99.90;;;;;;5098485;28;20027;-68
2022/12/08 05:12:00;;;;;;;21.02;9.68;;;-2.30;99.90;;;;;;5091980;28;20032;-68
2022/12/08 05:14:26;;;;;;;19.48;9.88;;;-2.40;99.90;;;;;;5096799;28;20395;-69
2022/12/08 05:16:51;;;;;;;20.83;9.85;;;-2.40;99.90;;;;;;5099179;28;20039;-69
2022/12/08 05:19:17;;;;;;;22.52;10.38;;;-2.40;99.90;;;;;;5111300;28;20448;-69
2022/12/08 05:21:43;;;;;;;21.80;10.93;;;-2.30;99.90;;;;;;5109486;28;20031;-68
2022/12/08 05:24:09;;;;;;;17.85;9.05;;;-2.30;99.90;;;;;;5095937;28;20028;-69
2022/12/08 05:26:35;;;;;;;16.73;8.88;;;-2.30;99.90;;;;;;5080120;28;20040;-69
2022/12/08 05:29:00;;;;;;;18.00;9.88;;;-2.20;99.90;;;;;;5097853;28;20034;-68
2022/12/08 05:31:26;;;;;;;16.45;8.18;;;-2.30;99.90;;;;;;5092630;28;20044;-68
2022/12/08 05:33:52;;;;;;;17.20;8.73;;;-2.40;99.90;;;;;;5100391;28;20102;-69
2022/12/08 05:36:18;;;;;;;17.88;9.45;;;-2.50;99.90;;;;;;5100800;28;20098;-69
2022/12/08 05:38:44;;;;;;;16.25;9.32;;;-2.50;99.90;;;;;;5104379;28;20035;-68
2022/12/08 05:41:13;;;;;;;20.05;9.77;;;-2.60;99.90;;;;;;5093001;28;20023;-69
2022/12/08 05:43:39;;;;;;;20.25;9.50;;;-2.60;99.90;;;;;;5087921;28;20081;-69
2022/12/08 05:46:05;;;;;;;16.73;9.25;;;-2.60;99.90;;;;;;5104686;28;20032;-70
2022/12/08 05:48:31;;;;;;;20.83;10.52;;;-2.60;99.90;;;;;;5101518;28;20035;-69
2022/12/08 05:50:57;;;;;;;21.65;10.55;;;-2.70;99.90;;;;;;5097088;28;20115;-68
2022/12/08 05:53:22;;;;;;;20.88;9.93;;;-2.70;99.90;;;;;;5097172;28;20076;-69
2022/12/08 05:55:48;;;;;;;20.17;9.98;;;-2.70;99.90;;;;;;5094304;28;20088;-69
2022/12/08 05:58:16;;;;;;;20.92;10.55;;;-2.70;99.90;;;;;;5104420;28;20036;-68
2022/12/08 06:00:43;;;;;;;22.52;10.35;;;-2.70;99.90;;;;;;5095096;28;20396;-69
2022/12/08 06:03:11;;;;;;;23.40;10.43;;;-2.70;99.90;;;;;;5101237;28;20032;-69
2022/12/08 06:05:36;;;;;;;21.08;9.70;;;-2.60;99.90;;;;;;5092175;28;20058;-69
2022/12/08 06:08:02;;;;;;;20.42;9.50;;;-2.60;99.90;;;;;;5096813;28;20464;-69
2022/12/08 06:10:28;;;;;;;20.63;8.75;;;-2.50;99.90;;;;;;5096679;28;20030;-69
2022/12/08 06:12:54;;;;;;;18.42;8.85;;;-2.50;99.90;;;;;;5091426;28;20032;-69
2022/12/08 06:15:20;;;;;;;19.00;8.68;;;-2.50;99.90;;;;;;5097049;28;20035;-69
2022/12/08 06:17:45;;;;;;;15.32;7.95;;;-2.50;99.90;;;;;;5096285;28;20035;-68
2022/12/08 06:20:11;;;;;;;17.13;7.75;;;-2.50;99.90;;;;;;5097676;28;20028;-68
2022/12/08 06:22:37;;;;;;;18.17;8.65;;;-2.60;99.90;;;;;;5073281;28;20169;-69
2022/12/08 06:25:03;;;;;;;17.65;8.63;;;-2.60;99.90;;;;;;5095184;28;20032;-69
2022/12/08 06:27:29;;;;;;;20.58;8.20;;;-2.70;99.90;;;;;;5082175;28;20047;-69
2022/12/08 06:29:55;;;;;;;17.13;7.93;;;-2.70;99.90;;;;;;5081058;28;20028;-69
2022/12/08 06:32:20;;;;;;;17.40;7.90;;;-2.70;99.90;;;;;;5078126;28;20196;-69
2022/12/08 06:34:46;;;;;;;18.90;9.02;;;-2.70;99.90;;;;;;5078243;28;20036;-69
2022/12/08 06:37:12;;;;;;;18.83;8.95;;;-2.80;99.90;;;;;;5080649;28;20031;-68
2022/12/08 06:39:37;;;;;;;21.73;9.45;;;-2.80;99.90;;;;;;5082963;28;20024;-68
2022/12/08 06:44:47;;;;;;;20.35;9.82;;;-3.00;99.90;;;;;;5072403;28;20090;-68
2022/12/08 06:47:13;;;;;;;24.70;11.60;;;-3.00;99.90;;;;;;5072868;28;20028;-70
2022/12/08 06:49:38;;;;;;;23.52;9.52;;;-3.00;99.90;;;;;;5076981;28;20024;-66
2022/12/08 06:52:04;;;;;;;21.20;10.18;;;-3.10;99.90;;;;;;5078086;28;20112;-70
2022/12/08 06:54:30;;;;;;;17.65;9.00;;;-3.10;99.90;;;;;;5083564;28;20036;-75
2022/12/08 06:56:55;;;;;;;23.13;9.95;;;-3.10;99.90;;;;;;5080093;28;20039;-70
2022/12/08 06:59:21;;;;;;;16.45;8.15;;;-3.10;99.90;;;;;;5081062;28;20032;-72
2022/12/08 07:01:46;;;;;;;18.88;8.13;;;-3.00;99.90;;;;;;5083207;28;20031;-72
2022/12/08 07:04:12;;;;;;;20.77;8.75;;;-3.00;99.90;;;;;;5073260;28;20102;-72
2022/12/08 07:06:40;;;;;;;28.40;10.35;;;-3.00;99.90;;;;;;5068506;28;20021;-71
2022/12/08 07:09:06;;;;;;;25.73;11.23;;;-2.90;99.90;;;;;;5075440;28;20086;-73
2022/12/08 07:11:31;;;;;;;27.23;11.00;;;-2.80;99.90;;;;;;5079057;28;20093;-71
2022/12/08 07:13:57;;;;;;;20.85;10.32;;;-2.70;99.90;;;;;;5078505;28;20037;-71
2022/12/08 07:16:23;;;;;;;24.98;10.77;;;-2.70;99.90;;;;;;5072178;28;20809;-71
2022/12/08 07:18:49;;;;;;;23.25;10.52;;;-2.70;99.90;;;;;;5076716;28;20024;-71
2022/12/08 07:21:16;;;;;;;18.35;9.15;;;-2.70;99.90;;;;;;5087274;28;20039;-73
2022/12/08 07:23:43;;;;;;;22.27;9.30;;;-2.70;99.90;;;;;;5080681;28;20032;-71
2022/12/08 07:26:11;;;;;;;18.98;9.15;;;-2.70;99.90;;;;;;5080218;28;20404;-71
2022/12/08 07:28:38;;;;;;;16.38;7.70;;;-2.50;99.90;;;;;;5097618;28;20028;-73
2022/12/08 07:31:05;;;;;;;16.88;8.32;;;-2.40;99.90;;;;;;5087420;28;20399;-70
2022/12/08 07:33:32;;;;;;;16.17;7.93;;;-2.40;99.90;;;;;;5094781;28;20031;-72
2022/12/08 07:36:00;;;;;;;13.93;7.40;;;-2.40;99.90;;;;;;5102279;28;20408;-82
2022/12/08 07:38:26;;;;;;;17.88;8.43;;;-2.50;99.90;;;;;;5097502;28;20717;-72
2022/12/08 07:40:53;;;;;;;19.13;9.45;;;-2.50;99.90;;;;;;5092669;28;20036;-73
2022/12/08 07:43:19;;;;;;;20.25;8.48;;;-2.50;99.90;;;;;;5094213;28;20020;-73
2022/12/08 07:45:45;;;;;;;16.67;8.00;;;-2.50;99.90;;;;;;5091971;28;20032;-78
2022/12/08 07:48:11;;;;;;;20.73;8.45;;;-2.50;99.90;;;;;;5093827;28;20382;-78
2022/12/08 07:50:37;;;;;;;19.90;8.52;;;-2.50;99.90;;;;;;5094449;28;20032;-74
2022/12/08 07:53:02;;;;;;;15.23;8.25;;;-2.50;99.90;;;;;;5099148;28;20441;-76
2022/12/08 07:55:28;;;;;;;18.75;8.30;;;-2.50;99.90;;;;;;5096160;28;20032;-74
2022/12/08 07:57:54;;;;;;;18.80;8.13;;;-2.50;99.90;;;;;;5093351;28;20441;-74
2022/12/08 08:00:20;;;;;;;17.20;8.25;;;-2.50;99.90;;;;;;5102744;28;20024;-79
2022/12/08 08:02:45;;;;;;;15.52;8.45;;;-2.60;99.90;;;;;;5103336;28;20026;-83
2022/12/08 08:05:11;;;;;;;19.48;9.05;;;-2.60;99.90;;;;;;5083336;28;20028;-73
2022/12/08 08:07:38;;;;;;;20.02;9.80;;;-2.60;99.90;;;;;;5101890;28;20023;-78
2022/12/08 08:10:05;;;;;;;25.58;10.48;;;-2.60;99.90;;;;;;5081114;28;20160;-78
2022/12/08 08:12:31;;;;;;;21.88;10.63;;;-2.50;99.90;;;;;;5097094;28;20127;-81
2022/12/08 08:14:58;;;;;;;23.55;10.35;;;-2.40;99.90;;;;;;5096331;28;20072;-75
2022/12/08 08:17:23;;;;;;;19.40;9.70;;;-2.30;99.90;;;;;;5092148;28;20034;-70
2022/12/08 08:19:49;;;;;;;17.65;8.90;;;-2.20;99.90;;;;;;5095125;28;20106;-74
2022/12/08 08:22:14;;;;;;;19.17;8.68;;;-2.10;99.90;;;;;;5104430;28;20028;-71
2022/12/08 08:24:40;;;;;;;19.15;8.77;;;-1.90;99.90;;;;;;5097339;28;20034;-83
2022/12/08 08:27:05;;;;;;;20.48;10.20;;;-1.80;99.90;;;;;;5094419;28;20063;-77
2022/12/08 08:29:31;;;;;;;17.65;9.07;;;-1.70;99.90;;;;;;5095628;28;20234;-82
2022/12/08 08:31:57;;;;;;;21.27;9.82;;;-1.60;99.90;;;;;;5098425;28;20027;-78
2022/12/08 08:34:22;;;;;;;16.88;9.13;;;-1.50;99.90;;;;;;5088199;28;20036;-81
2022/12/08 08:36:48;;;;;;;15.38;9.15;;;-1.50;99.90;;;;;;5102759;28;20027;-74
2022/12/08 08:39:14;;;;;;;15.10;8.75;;;-1.40;99.90;;;;;;5093686;28;20079;-78
2022/12/08 08:41:40;;;;;;;22.27;9.27;;;-1.30;99.90;;;;;;5102932;28;20028;-79
2022/12/08 08:44:06;;;;;;;19.55;9.48;;;-1.20;99.90;;;;;;5093913;28;20031;-77
2022/12/08 08:46:32;;;;;;;14.85;8.18;;;-1.20;99.90;;;;;;5103276;28;20023;-75
2022/12/08 08:48:57;;;;;;;19.27;9.48;;;-1.10;99.90;;;;;;5082693;28;20129;-73
2022/12/08 08:51:23;;;;;;;16.10;8.60;;;-1.00;99.90;;;;;;5100386;28;20073;-75
2022/12/08 08:53:49;;;;;;;20.80;10.90;;;-0.90;99.90;;;;;;5103036;28;20031;-75
2022/12/08 08:56:20;;;;;;;15.82;9.95;;;-0.90;99.90;;;;;;5103419;28;20043;-74
2022/12/08 08:58:49;;;;;;;18.25;9.95;;;-0.80;99.90;;;;;;5099939;28;20028;-71
2022/12/08 09:01:20;;;;;;;20.13;10.05;;;-0.70;99.90;;;;;;5091639;28;20028;-73
2022/12/08 09:03:47;;;;;;;18.63;10.38;;;-0.60;99.90;;;;;;5096665;28;20040;-74
2022/12/08 09:06:13;;;;;;;22.23;11.40;;;-0.60;99.90;;;;;;5101694;28;20035;-74
2022/12/08 09:08:40;;;;;;;19.30;11.52;;;-0.50;99.90;;;;;;5102458;28;20107;-83
2022/12/08 09:11:06;;;;;;;19.52;11.60;;;-0.40;99.90;;;;;;5104372;28;20036;-78
2022/12/08 09:13:32;;;;;;;19.23;11.32;;;-0.40;99.90;;;;;;5096807;28;20027;-80
2022/12/08 09:16:00;;;;;;;17.73;10.57;;;-0.30;99.90;;;;;;5096784;28;20040;-74
2022/12/08 09:18:26;;;;;;;19.92;9.90;;;-0.30;99.90;;;;;;5098204;28;20028;-74
2022/12/08 09:20:53;;;;;;;19.15;10.27;;;-0.30;99.90;;;;;;5103769;28;20126;-72
2022/12/08 09:23:19;;;;;;;22.38;12.32;;;-0.20;99.90;;;;;;5091137;28;20081;-73
2022/12/08 09:25:45;;;;;;;19.15;11.35;;;-0.20;99.90;;;;;;5096828;28;20480;-74
2022/12/08 09:28:11;;;;;;;22.95;11.82;;;0.00;99.90;;;;;;5072154;28;20024;-74
2022/12/08 09:30:37;;;;;;;21.27;12.25;;;0.00;99.90;;;;;;5101549;28;20032;-75
2022/12/08 09:33:03;;;;;;;26.67;13.38;;;0.10;99.90;;;;;;5085938;28;20027;-76
2022/12/08 09:35:28;;;;;;;32.65;14.27;;;0.20;99.90;;;;;;5095891;28;20035;-74
2022/12/08 09:37:54;;;;;;;23.58;12.80;;;0.20;99.90;;;;;;5095379;28;20055;-74
2022/12/08 09:40:22;;;;;;;21.25;12.32;;;0.30;99.90;;;;;;5094682;28;20090;-72
2022/12/08 09:43:02;;;;;;;21.83;12.25;;;0.40;99.90;;;;;;5100673;28;20055;-72
2022/12/08 09:45:33;;;;;;;20.92;13.55;;;0.40;99.90;;;;;;5095216;28;20019;-72
2022/12/08 09:48:00;;;;;;;23.25;11.90;;;0.50;99.90;;;;;;5093458;28;20325;-72
2022/12/08 09:50:41;;;;;;;21.25;11.82;;;0.60;99.90;;;;;;5105794;28;20092;-71
2022/12/08 09:53:18;;;;;;;19.13;11.10;;;0.70;99.90;;;;;;5094977;28;20039;-73
2022/12/08 09:55:57;;;;;;;20.45;11.05;;;0.80;99.90;;;;;;5095181;28;20036;-73
2022/12/08 09:58:49;;;;;;;22.20;11.45;;;0.80;99.90;;;;;;5101733;28;20020;-72
2022/12/08 10:01:15;;;;;;;20.90;11.75;;;;;;;;;;5097901;28;20396;-71
2022/12/08 10:03:41;;;;;;;17.52;10.82;;;;;;;;;;5092517;28;20406;-73
2022/12/08 10:06:26;;;;;;;20.02;11.07;;;1.30;99.90;;;;;;5099971;28;20395;-73
2022/12/08 10:09:15;;;;;;;17.88;10.52;;;1.30;99.90;;;;;;5096825;28;20161;-73
2022/12/08 10:11:52;;;;;;;17.17;9.02;;;1.30;99.90;;;;;;5090177;28;20074;-73
2022/12/08 10:14:41;;;;;;;15.02;9.48;;;1.30;99.90;;;;;;5090089;28;20458;-73
2022/12/08 10:17:44;;;;;;;16.13;9.38;;;1.40;99.90;;;;;;5095743;28;20031;-86
2022/12/08 10:20:17;;;;;;;13.30;9.00;;;1.50;99.90;;;;;;5081548;28;20123;-73
2022/12/08 10:22:45;;;;;;;15.88;8.63;;;1.60;99.90;;;;;;5078492;28;20444;-71
2022/12/08 10:25:14;;;;;;;13.27;7.40;;;1.70;99.90;;;;;;5096093;28;20027;-73
2022/12/08 10:27:40;;;;;;;15.63;7.60;;;1.70;99.90;;;;;;5072454;28;20053;-72
2022/12/08 10:30:17;;;;;;;13.52;7.88;;;1.90;99.90;;;;;;5077289;28;20035;-73
2022/12/08 10:32:48;;;;;;;14.32;7.10;;;2.00;99.90;;;;;;5075205;28;20029;-73
2022/12/08 10:35:16;;;;;;;11.63;7.20;;;2.10;99.90;;;;;;5083421;28;20028;-73
2022/12/08 10:38:02;;;;;;;9.75;5.88;;;2.20;99.90;;;;;;5074146;28;20517;-75
2022/12/08 10:40:34;;;;;;;9.80;5.50;;;2.30;99.90;;;;;;5074033;28;20028;-73
2022/12/08 10:43:04;;;;;;;11.82;6.75;;;2.40;99.90;;;;;;5077350;28;20028;-73
2022/12/08 10:45:37;;;;;;;9.10;5.23;;;2.50;99.90;;;;;;5061729;28;20032;-74
2022/12/08 10:48:21;;;;;;;8.00;5.40;;;2.70;99.90;;;;;;5076830;28;20635;-76
2022/12/08 10:51:02;;;;;;;7.75;4.90;;;2.80;99.90;;;;;;5082990;28;20020;-72
2022/12/08 10:53:32;;;;;;;;;;;3.00;99.90;;;;;;5080382;28;20031;-74
2022/12/08 10:56:00;;;;;;;9.32;4.80;;;3.20;99.90;;;;;;5069494;28;19971;-72
2022/12/08 10:58:27;;;;;;;9.57;4.47;;;3.10;99.90;;;;;;5076200;28;20287;-73
2022/12/08 11:00:55;;;;;;;7.45;4.93;;;;;;;;;;5077371;28;20024;-75
2022/12/08 11:03:28;;;;;;;9.82;5.20;;;4.00;99.90;;;;;;5055192;28;20036;-76
2022/12/08 11:06:12;;;;;;;7.00;4.68;;;4.30;99.90;;;;;;5074777;28;20042;-77
2022/12/08 11:09:02;;;;;;;7.63;4.85;;;4.60;99.90;;;;;;5081601;28;20021;-83
2022/12/08 11:11:46;;;;;;;;;;;4.80;99.90;;;;;;5076637;28;20024;-79
2022/12/08 11:14:26;;;;;;;10.13;5.57;;;5.00;99.90;;;;;;5060395;28;19929;-80
2022/12/08 11:16:54;;;;;;;8.97;5.30;;;5.10;99.90;;;;;;5075304;28;20107;-72
2022/12/08 11:19:28;;;;;;;11.63;5.57;;;5.30;99.90;;;;;;5080885;28;20031;-86
2022/12/08 11:21:54;;;;;;;6.65;4.43;;;5.40;99.90;;;;;;5069618;28;20028;-84
2022/12/08 11:24:26;;;;;;;8.18;4.30;;;5.50;99.90;;;;;;5070333;28;20032;-74
2022/12/08 11:26:59;;;;;;;8.82;5.47;;;5.70;99.90;;;;;;5086827;28;20044;-74
2022/12/08 11:29:26;;;;;;;7.38;5.05;;;5.80;99.90;;;;;;5095592;28;20023;-73
2022/12/08 11:31:58;;;;;;;7.00;5.03;;;6.00;99.90;;;;;;5096358;28;20066;-76
2022/12/08 11:34:39;;;;;;;7.35;4.40;;;6.10;99.90;;;;;;5093940;28;20027;-74
2022/12/08 11:37:06;;;;;;;7.22;4.35;;;;;;;;;;5099098;28;20069;-75
2022/12/08 11:39:34;;;;;;;8.02;5.10;;;;;;;;;;5098109;28;20260;-74
2022/12/08 11:42:02;;;;;;;6.85;4.38;;;;;;;;;;5096938;28;20027;-77
2022/12/08 11:44:40;;;;;;;5.57;3.88;;;;;;;;;;5099016;28;20028;-76
2022/12/08 11:47:13;;;;;;;6.60;4.68;;;;;;;;;;5104341;28;20035;-77
2022/12/08 11:49:40;;;;;;;7.63;4.50;;;;;;;;;;5100970;28;20033;-77
2022/12/08 11:52:25;;;;;;;6.30;4.50;;;;;;;;;;5091923;28;20039;-75
2022/12/08 11:55:09;;;;;;;7.30;4.30;;;;;;;;;;5099619;28;20166;-77
2022/12/08 11:57:35;;;;;;;6.57;4.28;;;;;;;;;;5096998;28;20036;-78
2022/12/08 12:00:02;;;;;;;7.53;4.53;;;;;;;;;;5094109;28;20024;-77
2022/12/08 12:02:29;;;;;;;5.90;4.43;;;;;;;;;;5097761;28;20012;-76
2022/12/08 12:05:27;;;;;;;6.13;4.18;;;;;;;;;;5098763;28;20032;-75
2022/12/08 12:07:56;;;;;;;7.53;4.40;;;;;;;;;;5093368;28;20035;-76
2022/12/08 12:10:28;;;;;;;6.25;4.10;;;;;;;;;;5099313;28;20100;-77
2022/12/08 12:13:08;;;;;;;6.82;3.65;;;;;;;;;;5097319;28;20032;-76
2022/12/08 12:15:34;;;;;;;7.00;4.28;;;;;;;;;;5095441;28;20670;-76
2022/12/08 12:18:00;;;;;;;9.02;4.10;;;;;;;;;;5095329;28;20061;-75
2022/12/08 12:20:29;;;;;;;6.45;4.13;;;;;;;;;;5096394;28;20043;-76
2022/12/08 12:23:04;;;;;;;6.90;4.25;;;;;;;;;;5094459;28;20072;-76
2022/12/08 12:25:32;;;;;;;7.03;4.53;;;;;;;;;;5095672;28;20024;-74
2022/12/08 12:28:00;;;;;;;7.22;3.97;;;;;;;;;;5095122;28;20124;-74
2022/12/08 12:30:27;;;;;;;6.50;4.43;;;;;;;;;;5098662;28;20870;-75
2022/12/08 12:33:00;;;;;;;7.68;5.03;;;;;;;;;;5098324;28;20031;-75
2022/12/08 12:35:34;;;;;;;6.60;4.50;;;;;;;;;;5094796;28;20128;-76
2022/12/08 12:38:59;;;;;;;8.00;4.45;;;;;;;;;;5096125;28;20034;-75
2022/12/08 12:41:01;;;;;;;6.80;3.90;;;;;;;;;;5099938;28;20028;-75
2022/12/08 12:43:29;;;;;;;5.82;3.78;;;;;;;;;;5100939;28;20020;-74
2022/12/08 12:46:14;;;;;;;5.13;3.53;;;;;;;;;;5100240;28;20028;-75
2022/12/08 12:48:40;;;;;;;5.88;3.25;;;;;;;;;;5093525;28;20082;-76
2022/12/08 12:51:26;;;;;;;6.25;3.20;;;;;;;;;;5099860;28;20024;-74
2022/12/08 12:53:52;;;;;;;5.65;3.33;;;;;;;;;;5099495;28;20035;-75
2022/12/08 12:56:37;;;;;;;3.35;2.70;;;;;;;;;;5098235;28;20553;-77
2022/12/08 12:59:21;;;;;;;5.25;3.65;;;;;;;;;;5101822;28;20484;-75
2022/12/08 13:01:57;;;;;;;6.15;3.80;;;;;;;;;;5096043;28;20416;-75
2022/12/08 13:04:31;;;;;;;7.22;3.95;;;;;;;;;;5098938;28;20023;-75
2022/12/08 13:06:57;;;;;;;4.95;3.40;;;;;;;;;;5095782;28;20022;-74
2022/12/08 13:09:29;;;;;;;4.82;3.42;;;;;;;;;;5098066;28;20020;-74
2022/12/08 13:11:57;;;;;;;4.55;2.92;;;;;;;;;;5098464;28;20015;-76
2022/12/08 13:14:26;;;;;;;7.88;3.63;;;;;;;;;;5097035;28;20103;-78
2022/12/08 13:16:54;;;;;;;8.82;3.40;;;;;;;;;;5098922;28;20028;-74
2022/12/08 13:19:21;;;;;;;5.60;3.40;;;;;;;;;;5099675;28;20131;-77
2022/12/08 13:21:47;;;;;;;8.13;3.10;;;;;;;;;;5098696;28;20019;-77
2022/12/08 13:24:25;;;;;;;5.07;3.22;;;;;;;;;;5097541;28;20031;-74
2022/12/08 13:27:03;;;;;;;6.00;3.20;;;;;;;;;;5096614;28;20085;-76